CST,Max TemperatureF,Mean TemperatureF,Min TemperatureF,Max Dew PointF,MeanDew PointF,Min DewpointF,Max Humidity, Mean Humidity, Min Humidity, Max Sea Level PressureIn, Mean Sea Level PressureIn, Min Sea Level PressureIn, Max VisibilityMiles, Mean VisibilityMiles, Min VisibilityMiles, Max Wind SpeedMPH, Mean Wind SpeedMPH, Max Gust SpeedMPH,PrecipitationIn, CloudCover, Events, WindDirDegrees
2012-12-1,64,52,39,55,49,35,96,82,73,30.04,29.91,29.83,,,,9,3,,0.00,,,144
2012-12-2,52,46,41,48,44,40,97,94,83,30.05,29.98,29.90,,,,6,1,,0.00,,,113
2012-12-3,72,60,48,58,50,36,97,68,52,30.04,29.84,29.73,,,,23,10,32,0.00,,,200
2012-12-4,63,48,32,35,29,23,85,55,22,30.34,30.24,30.05,,,,8,2,,0.00,,,316
2012-12-5,55,42,28,34,30,24,82,61,40,30.40,30.27,30.07,,,,10,4,,0.00,,,130
2012-12-6,53,48,42,44,37,30,86,70,59,30.05,29.98,29.90,,,,9,6,,0.02,,,161
2012-12-7,46,44,39,40,38,37,93,83,76,29.98,29.94,29.88,,,,10,6,,0.02,,,17
2012-12-8,43,38,32,37,34,29,93,83,70,30.07,30.00,29.95,,,,12,4,16,0.02,,,81
2012-12-9,43,32,21,39,29,12,93,78,60,30.09,29.95,29.88,,,,16,7,25,0.01,,,308
2012-12-10,30,22,15,15,12,10,81,66,51,30.13,30.09,30.05,,,,14,9,22,0.00,,,298
2012-12-11,43,30,17,20,16,11,81,61,40,30.19,30.09,30.05,,,,7,4,,0.00,,,188
2012-12-12,50,36,21,21,16,11,85,49,22,30.27,30.20,30.17,,,,17,6,26,0.00,,,180
2012-12-13,55,42,30,24,21,18,79,49,28,30.20,30.16,30.11,,,,15,7,22,0.00,,,183
2012-12-14,53,40,28,40,28,22,85,59,41,30.16,30.03,29.79,,,,16,5,28,0.13,,,159
2012-12-15,53,48,43,47,44,38,97,83,74,29.77,29.63,29.54,,,,14,9,21,0.37,,,210
2012-12-16,42,40,36,37,35,34,93,86,82,29.83,29.78,29.73,,,,7,4,,0.00,,,344
2012-12-17,42,34,27,32,30,26,96,83,65,29.81,29.78,29.73,,,,6,1,,0.00,,,237
2012-12-18,54,41,28,34,32,27,92,73,47,29.95,29.75,29.62,,,,15,7,29,0.00,,,240
2012-12-19,39,34,30,37,32,28,97,87,79,29.98,29.81,29.44,,,,20,5,29,0.31,,,77
2012-12-20,37,29,19,37,24,11,97,84,65,30.22,29.81,29.38,,,,26,15,43,0.64,,,320
2012-12-21,30,22,14,17,13,8,92,71,47,30.42,30.35,30.24,,,,8,5,17,0.00,,,292
2012-12-22,41,26,12,26,20,11,96,78,53,30.33,30.12,29.99,,,,9,2,,0.00,,,168
2012-12-23,30,24,19,22,20,17,96,80,67,30.08,30.02,29.99,,,,7,4,,0.00,,,352
2012-12-24,23,20,16,20,15,12,92,81,68,30.26,30.13,29.99,,,,12,5,21,0.00,,,334
2012-12-25,21,16,10,14,10,4,84,76,65,30.44,30.35,30.27,,,,13,9,23,0.00,,,3
2012-12-26,26,18,10,15,10,6,88,78,63,30.32,30.29,30.25,,,,12,7,18,0.00,,,345
2012-12-27,30,20,9,23,18,8,96,82,72,30.26,30.16,30.06,,,,12,4,18,0.00,,,89
2012-12-28,32,28,24,26,24,19,92,83,73,30.09,30.03,29.99,,,,12,3,18,0.00,,,304
2012-12-29,28,22,16,20,16,12,92,79,61,30.35,30.27,30.09,,,,12,8,21,0.00,,,292
2012-12-30,42,28,14,24,20,12,92,67,47,30.39,30.28,30.15,,,,14,5,23,0.00,,,189
2012-12-31,37,29,19,27,22,15,92,75,54,30.27,30.19,30.14,,,,10,6,18,0.06,,,353